36TA weather

G W Heliport
San Antonio, Texas, United States

Public forecast

Using degrees Fahrenheit for public forecast. Weather courtesy of forecast.io.

METAR (pilot weather report)

Closest report is San Antonio International Airport, 1.7 nm (3.1 km) SE. Retrieved 2019/07/19 12:51 UTC (32 minutes ago):

KSAT 191251Z 16010KT 10SM BKN015 BKN028 26/23 A3000 RMK AO2 SLP139 T02610228

TAF (pilot weather forecast)

Closest forecast is San Antonio International Airport, 1.7 nm (3.1 km) SE. Retrieved 2019/07/19 12:36 UTC (47 minutes ago):

TAF KSAT 191134Z 1912/2018 17010KT P6SM BKN010 FM191400 16013G23KT P6SM SCT025 FM192100 14014KT P6SM FEW050 SCT250 FM200400 18011KT P6SM FEW250